Time;durP1;ratioP1;P1;durP2;ratioP2;P2;SDS_P1;SDS_P2;PMS_P1;PMS_P2;Temp;Humidity;BMP_temperature;BMP_pressure;BME280_temperature;BME280_humidity;BME280_pressure;Samples;Min_cycle;Max_cycle;Signal;HPM_P1;HPM_P2
2023/08/31 00:00:57;;;;;;;56.57;2.47;;;;;;;;;;5073242;28;20486;-69
2023/08/31 00:03:26;;;;;;;57.10;2.30;;;;;;;;;;5072941;28;20534;-67
2023/08/31 00:05:53;;;;;;;56.30;2.30;;;;;;;;;;5073447;28;20462;-67
2023/08/31 00:08:22;;;;;;;56.57;2.40;;;;;;;;;;5073488;28;20927;-67
2023/08/31 00:10:56;;;;;;;56.40;2.17;;;;;;;;;;5073384;28;20479;-67
2023/08/31 00:13:23;;;;;;;56.37;2.17;;;;;;;;;;5073032;28;20448;-67
2023/08/31 00:15:51;;;;;;;56.50;2.20;;;;;;;;;;5072681;28;20976;-67
2023/08/31 00:18:18;;;;;;;56.40;2.20;;;;;;;;;;5073274;28;20458;-69
2023/08/31 00:20:46;;;;;;;56.47;2.40;;;;;;;;;;5073672;28;20444;-68
2023/08/31 00:23:14;;;;;;;57.00;2.73;;;;;;;;;;5072945;28;20989;-69
2023/08/31 00:25:43;;;;;;;56.37;2.03;;;;;;;;;;5073067;28;20464;-67
2023/08/31 00:28:10;;;;;;;56.70;2.60;;;;;;;;;;5073204;28;20925;-68
2023/08/31 00:30:37;;;;;;;56.43;2.40;;;;;;;;;;5072925;28;21083;-67
2023/08/31 00:33:04;;;;;;;56.57;2.20;;;;;;;;;;5072925;28;20447;-68
2023/08/31 00:35:32;;;;;;;56.50;2.40;;;;;;;;;;5072734;28;20468;-68
2023/08/31 00:38:01;;;;;;;56.70;2.40;;;;;;;;;;5073314;28;20454;-68
2023/08/31 00:40:33;;;;;;;56.70;2.40;;;;;;;;;;5072690;28;20448;-67
2023/08/31 00:43:00;;;;;;;56.50;2.30;;;;;;;;;;5072921;28;20455;-69
2023/08/31 00:45:28;;;;;;;57.37;3.37;;;;;;;;;;5073004;28;20823;-67
2023/08/31 00:47:57;;;;;;;56.50;2.20;;;;;;;;;;5072547;28;20940;-67
2023/08/31 00:50:24;;;;;;;56.47;2.17;;;;;;;;;;5072657;28;20870;-68
2023/08/31 00:52:52;;;;;;;56.40;2.20;;;;;;;;;;5072230;28;20453;-67
2023/08/31 00:55:20;;;;;;;56.50;2.40;;;;;;;;;;5072388;28;20502;-70
2023/08/31 00:57:47;;;;;;;56.37;2.30;;;;;;;;;;5072455;28;20944;-68
2023/08/31 01:00:15;;;;;;;56.90;2.40;;;;;;;;;;5072937;28;20443;-68
2023/08/31 01:02:48;;;;;;;56.50;2.10;;;;;;;;;;5072163;28;20451;-68
2023/08/31 01:05:24;;;;;;;56.63;2.20;;;;;;;;;;5072261;28;20467;-68
2023/08/31 01:07:54;;;;;;;56.30;2.20;;;;;;;;;;5072443;28;20443;-68
2023/08/31 01:10:27;;;;;;;56.57;2.10;;;;;;;;;;5072319;28;20493;-68
2023/08/31 01:12:56;;;;;;;56.77;2.30;;;;;;;;;;5072102;28;20469;-68
2023/08/31 01:15:23;;;;;;;56.70;2.20;;;;;;;;;;5072020;28;20479;-67
2023/08/31 01:17:51;;;;;;;56.70;2.40;;;;;;;;;;5072031;28;20533;-68
2023/08/31 01:20:21;;;;;;;56.57;2.20;;;;;;;;;;5071968;28;20455;-67
2023/08/31 01:22:52;;;;;;;56.67;2.20;;;;;;;;;;5071844;28;20790;-67
2023/08/31 01:25:22;;;;;;;56.57;2.40;;;;;;;;;;5071934;28;20550;-69
2023/08/31 01:27:49;;;;;;;56.67;2.30;;;;;;;;;;5071017;28;20990;-68
2023/08/31 01:30:16;;;;;;;56.17;2.20;;;;;;;;;;5071668;28;20569;-68
2023/08/31 01:32:46;;;;;;;57.37;2.50;;;;;;;;;;5071721;28;20482;-67
2023/08/31 01:35:15;;;;;;;56.67;2.50;;;;;;;;;;5071842;28;20464;-67
2023/08/31 01:37:45;;;;;;;56.70;2.30;;;;;;;;;;5071737;28;20455;-68
2023/08/31 01:40:15;;;;;;;56.63;2.30;;;;;;;;;;5071797;28;20447;-67
2023/08/31 01:42:45;;;;;;;56.70;2.50;;;;;;;;;;5071699;28;20443;-68
2023/08/31 01:45:13;;;;;;;56.07;2.27;;;;;;;;;;5069878;28;20471;-68
2023/08/31 01:47:40;;;;;;;57.57;2.70;;;;;;;;;;5071437;28;20450;-68
2023/08/31 01:50:07;;;;;;;56.37;2.13;;;;;;;;;;5071520;28;20493;-68
2023/08/31 01:52:34;;;;;;;56.80;2.20;;;;;;;;;;5071466;28;20445;-68
2023/08/31 01:55:03;;;;;;;56.90;2.20;;;;;;;;;;5071298;28;20853;-67
2023/08/31 01:57:30;;;;;;;56.67;2.20;;;;;;;;;;5071328;28;20454;-68
2023/08/31 01:59:58;;;;;;;56.47;2.07;;;;;;;;;;5069165;28;20542;-67
2023/08/31 02:02:25;;;;;;;56.53;2.23;;;;;;;;;;5062550;28;20548;-68
2023/08/31 02:04:53;;;;;;;56.80;2.10;;;;;;;;;;5070716;28;20464;-67
2023/08/31 02:07:20;;;;;;;56.67;2.27;;;;;;;;;;5071338;28;20444;-67
2023/08/31 02:09:47;;;;;;;56.63;2.23;;;;;;;;;;5071267;28;20445;-68
2023/08/31 02:12:14;;;;;;;56.93;2.40;;;;;;;;;;5071128;28;20822;-67
2023/08/31 02:14:41;;;;;;;56.53;2.27;;;;;;;;;;5071085;28;20831;-68
2023/08/31 02:17:10;;;;;;;56.60;2.33;;;;;;;;;;5070744;28;20451;-68
2023/08/31 02:19:37;;;;;;;56.57;2.30;;;;;;;;;;5071073;28;20820;-67
2023/08/31 02:22:04;;;;;;;56.77;2.30;;;;;;;;;;5070970;28;20435;-68
2023/08/31 02:24:31;;;;;;;56.33;2.20;;;;;;;;;;5071133;28;20478;-68
2023/08/31 02:26:58;;;;;;;57.73;3.40;;;;;;;;;;5070966;28;20447;-67
2023/08/31 02:29:25;;;;;;;56.37;2.43;;;;;;;;;;5070971;28;20454;-69
2023/08/31 02:31:52;;;;;;;56.57;2.80;;;;;;;;;;5070914;28;20487;-68
2023/08/31 02:34:21;;;;;;;56.67;2.80;;;;;;;;;;5070980;28;20470;-68
2023/08/31 02:36:48;;;;;;;56.90;2.40;;;;;;;;;;5070873;28;20459;-67
2023/08/31 02:39:16;;;;;;;56.67;2.23;;;;;;;;;;5070706;28;20870;-67
2023/08/31 02:41:43;;;;;;;56.40;2.13;;;;;;;;;;5070605;28;20453;-69
2023/08/31 02:44:11;;;;;;;56.60;2.30;;;;;;;;;;5070913;28;20459;-68
2023/08/31 02:46:38;;;;;;;56.90;2.40;;;;;;;;;;5070487;28;21022;-68
2023/08/31 02:49:05;;;;;;;56.60;2.20;;;;;;;;;;5070668;28;20448;-67
2023/08/31 02:51:34;;;;;;;56.60;2.20;;;;;;;;;;5070643;28;20489;-68
2023/08/31 02:54:01;;;;;;;56.67;2.60;;;;;;;;;;5070866;28;20446;-68
2023/08/31 02:56:28;;;;;;;56.47;2.30;;;;;;;;;;5070706;28;20493;-69
2023/08/31 02:58:55;;;;;;;56.50;2.40;;;;;;;;;;5070657;28;20451;-68
2023/08/31 03:01:24;;;;;;;56.80;2.40;;;;;;;;;;5070739;28;20539;-69
2023/08/31 03:03:51;;;;;;;56.70;2.40;;;;;;;;;;5070648;28;20451;-68
2023/08/31 03:06:18;;;;;;;56.40;2.07;;;;;;;;;;5070531;28;20971;-68
2023/08/31 03:08:47;;;;;;;56.40;2.20;;;;;;;;;;5070610;28;20443;-67
2023/08/31 03:11:15;;;;;;;56.47;2.30;;;;;;;;;;5070457;28;20568;-68
2023/08/31 03:13:43;;;;;;;56.33;2.20;;;;;;;;;;5070225;28;20538;-69
2023/08/31 03:16:10;;;;;;;56.57;2.30;;;;;;;;;;5070252;28;20959;-69
2023/08/31 03:18:37;;;;;;;56.57;2.30;;;;;;;;;;5070706;28;20446;-69
2023/08/31 03:21:04;;;;;;;56.07;2.30;;;;;;;;;;5070584;28;20539;-70
2023/08/31 03:23:31;;;;;;;56.30;2.07;;;;;;;;;;5070184;28;20819;-70
2023/08/31 03:25:59;;;;;;;56.00;2.23;;;;;;;;;;5070464;28;20467;-69
2023/08/31 03:28:27;;;;;;;56.43;2.30;;;;;;;;;;5070399;28;20449;-71
2023/08/31 03:30:57;;;;;;;56.57;2.30;;;;;;;;;;5070647;28;20493;-69
2023/08/31 03:33:24;;;;;;;57.77;3.30;;;;;;;;;;5070301;28;20453;-69
2023/08/31 03:35:51;;;;;;;56.57;2.40;;;;;;;;;;5070251;28;20460;-70
2023/08/31 03:38:18;;;;;;;56.47;2.43;;;;;;;;;;5070445;28;20491;-69
2023/08/31 03:40:53;;;;;;;56.43;2.37;;;;;;;;;;5070156;28;20449;-70
2023/08/31 03:43:22;;;;;;;56.23;2.30;;;;;;;;;;5070296;28;20534;-69
2023/08/31 03:45:49;;;;;;;56.47;2.40;;;;;;;;;;5070270;28;20505;-70
2023/08/31 03:48:16;;;;;;;56.57;2.30;;;;;;;;;;5070236;28;20439;-69
2023/08/31 03:50:43;;;;;;;56.30;2.30;;;;;;;;;;5071344;28;20483;-70
2023/08/31 03:53:10;;;;;;;56.93;3.07;;;;;;;;;;5073315;28;20443;-69
2023/08/31 03:55:38;;;;;;;56.50;2.20;;;;;;;;;;5073720;28;20470;-69
2023/08/31 03:58:05;;;;;;;56.23;2.40;;;;;;;;;;5071519;28;20956;-69
2023/08/31 04:00:34;;;;;;;56.60;2.30;;;;;;;;;;5072275;28;20448;-69
2023/08/31 04:03:01;;;;;;;56.27;2.30;;;;;;;;;;5061463;28;20456;-69
2023/08/31 04:05:28;;;;;;;56.57;2.40;;;;;;;;;;5071592;28;20547;-70
2023/08/31 04:07:55;;;;;;;56.47;2.30;;;;;;;;;;5073389;28;20558;-69
2023/08/31 04:10:23;;;;;;;56.50;2.20;;;;;;;;;;5073354;28;20439;-69
2023/08/31 04:12:50;;;;;;;56.60;2.50;;;;;;;;;;5073361;28;20448;-68
2023/08/31 04:15:17;;;;;;;56.60;2.30;;;;;;;;;;5073384;28;20855;-69
2023/08/31 04:17:46;;;;;;;56.60;2.40;;;;;;;;;;5073332;28;20447;-69
2023/08/31 04:20:14;;;;;;;56.87;2.40;;;;;;;;;;5073390;28;20443;-68
2023/08/31 04:22:41;;;;;;;56.67;2.20;;;;;;;;;;5073379;28;20482;-69
2023/08/31 04:25:08;;;;;;;56.70;2.40;;;;;;;;;;5073080;28;20975;-68
2023/08/31 04:27:38;;;;;;;56.50;2.40;;;;;;;;;;5073107;28;20443;-69
2023/08/31 04:30:06;;;;;;;56.60;2.20;;;;;;;;;;5073075;28;20459;-70
2023/08/31 04:32:33;;;;;;;56.57;2.40;;;;;;;;;;5072797;28;20619;-70
2023/08/31 04:35:02;;;;;;;56.47;2.20;;;;;;;;;;5072915;28;20469;-70
2023/08/31 04:37:29;;;;;;;56.27;2.30;;;;;;;;;;5073072;28;20547;-69
2023/08/31 04:39:57;;;;;;;56.27;2.60;;;;;;;;;;5073011;28;20447;-71
2023/08/31 04:42:24;;;;;;;56.33;2.30;;;;;;;;;;5072632;28;20458;-69
2023/08/31 04:44:52;;;;;;;56.43;2.30;;;;;;;;;;5072794;28;20475;-69
2023/08/31 04:47:19;;;;;;;56.67;2.30;;;;;;;;;;5072602;28;20500;-70
2023/08/31 04:49:46;;;;;;;56.60;2.40;;;;;;;;;;5072890;28;20538;-69
2023/08/31 04:52:14;;;;;;;56.53;2.50;;;;;;;;;;5072446;28;20483;-70
2023/08/31 04:54:42;;;;;;;56.63;2.50;;;;;;;;;;5072465;28;20546;-68
2023/08/31 04:57:10;;;;;;;56.57;2.30;;;;;;;;;;5072373;28;20446;-68
2023/08/31 04:59:37;;;;;;;56.80;2.50;;;;;;;;;;5072779;28;20455;-69
2023/08/31 05:02:04;;;;;;;56.67;2.30;;;;;;;;;;5072031;28;20449;-68
2023/08/31 05:04:31;;;;;;;57.10;2.63;;;;;;;;;;5072577;28;20463;-70
2023/08/31 05:06:58;;;;;;;56.43;2.20;;;;;;;;;;5072496;28;20457;-68
2023/08/31 05:09:32;;;;;;;56.43;2.30;;;;;;;;;;5072463;28;20470;-70
2023/08/31 05:11:59;;;;;;;56.27;2.10;;;;;;;;;;5071945;28;20526;-68
2023/08/31 05:14:26;;;;;;;56.80;2.27;;;;;;;;;;5071950;28;20473;-68
2023/08/31 05:16:53;;;;;;;56.70;2.23;;;;;;;;;;5072135;28;20888;-68
2023/08/31 05:19:20;;;;;;;56.33;2.30;;;;;;;;;;5072195;28;20446;-68
2023/08/31 05:21:47;;;;;;;56.90;2.73;;;;;;;;;;5071723;28;20439;-69
2023/08/31 05:24:14;;;;;;;56.40;2.30;;;;;;;;;;5072165;28;20459;-68
2023/08/31 05:26:43;;;;;;;56.37;2.30;;;;;;;;;;5072068;28;20533;-68
2023/08/31 05:29:10;;;;;;;55.73;2.30;;;;;;;;;;5071901;28;20446;-68
2023/08/31 05:31:37;;;;;;;56.80;2.30;;;;;;;;;;5071786;28;20491;-69
2023/08/31 05:34:04;;;;;;;56.80;2.37;;;;;;;;;;5072154;28;20804;-69
2023/08/31 05:36:31;;;;;;;57.00;2.50;;;;;;;;;;5071700;28;20842;-68
2023/08/31 05:38:58;;;;;;;56.60;2.40;;;;;;;;;;5071800;28;20447;-68
2023/08/31 05:41:26;;;;;;;56.50;2.20;;;;;;;;;;5071647;28;20443;-68
2023/08/31 05:43:55;;;;;;;56.50;2.37;;;;;;;;;;5071514;28;20547;-68
2023/08/31 05:46:22;;;;;;;56.70;2.30;;;;;;;;;;5071473;28;20451;-68
2023/08/31 05:48:49;;;;;;;56.47;2.30;;;;;;;;;;5071700;28;20470;-69
2023/08/31 05:51:16;;;;;;;56.50;2.30;;;;;;;;;;5071519;28;20483;-69
2023/08/31 05:53:43;;;;;;;56.47;2.20;;;;;;;;;;5071432;28;20554;-69
2023/08/31 05:56:10;;;;;;;56.37;2.00;;;;;;;;;;5071175;28;20462;-69
2023/08/31 05:58:38;;;;;;;56.27;2.30;;;;;;;;;;5069122;28;21189;-69
2023/08/31 06:01:07;;;;;;;56.67;2.20;;;;;;;;;;5071352;28;20530;-69
2023/08/31 06:03:34;;;;;;;56.50;2.40;;;;;;;;;;5064212;28;20459;-68
2023/08/31 06:06:01;;;;;;;56.27;2.30;;;;;;;;;;5069963;28;21028;-69
2023/08/31 06:08:29;;;;;;;56.40;2.20;;;;;;;;;;5071039;28;20538;-69
2023/08/31 06:10:56;;;;;;;56.37;2.20;;;;;;;;;;5071261;28;20435;-68
2023/08/31 06:13:23;;;;;;;56.30;2.27;;;;;;;;;;5070669;28;20449;-69
2023/08/31 06:15:50;;;;;;;56.23;2.13;;;;;;;;;;5071150;28;20468;-68
2023/08/31 06:18:19;;;;;;;56.30;2.30;;;;;;;;;;5071037;28;20454;-69
2023/08/31 06:20:48;;;;;;;56.47;2.40;;;;;;;;;;5071137;28;20825;-69
2023/08/31 06:23:15;;;;;;;56.67;2.20;;;;;;;;;;5070715;28;20827;-68
2023/08/31 06:25:42;;;;;;;56.40;2.20;;;;;;;;;;5071026;28;20463;-68
2023/08/31 06:28:11;;;;;;;56.27;2.30;;;;;;;;;;5069390;28;20451;-68
2023/08/31 06:30:38;;;;;;;56.53;2.10;;;;;;;;;;5064347;28;20447;-69
2023/08/31 06:33:06;;;;;;;56.37;2.13;;;;;;;;;;5069044;28;20806;-68
2023/08/31 06:35:34;;;;;;;56.00;2.00;;;;;;;;;;5070568;28;20794;-68
2023/08/31 06:38:01;;;;;;;56.23;2.20;;;;;;;;;;5070874;28;20477;-69
2023/08/31 06:40:28;;;;;;;56.17;2.00;;;;;;;;;;5071053;28;20446;-68
2023/08/31 06:42:55;;;;;;;56.30;1.97;;;;;;;;;;5070777;28;20461;-69
2023/08/31 06:45:22;;;;;;;56.47;2.20;;;;;;;;;;5070997;28;20467;-68
2023/08/31 06:47:50;;;;;;;57.00;2.40;;;;;;;;;;5070876;28;20744;-68
2023/08/31 06:50:17;;;;;;;56.50;2.40;;;;;;;;;;5070705;28;21016;-69
2023/08/31 06:52:46;;;;;;;56.30;2.07;;;;;;;;;;5070399;28;20483;-71
2023/08/31 06:55:13;;;;;;;56.23;2.40;;;;;;;;;;5070783;28;20472;-69
2023/08/31 06:57:41;;;;;;;56.27;2.37;;;;;;;;;;5070826;28;20439;-69
2023/08/31 07:00:10;;;;;;;56.20;2.00;;;;;;;;;;5070708;28;20486;-69
2023/08/31 07:02:38;;;;;;;56.13;2.10;;;;;;;;;;5070237;28;20498;-68
2023/08/31 07:05:06;;;;;;;56.30;2.10;;;;;;;;;;5070471;28;20470;-68
2023/08/31 07:07:33;;;;;;;56.20;1.93;;;;;;;;;;5070497;28;20936;-68
2023/08/31 07:10:02;;;;;;;56.40;2.23;;;;;;;;;;5070688;28;20450;-68
2023/08/31 07:12:29;;;;;;;56.70;2.70;;;;;;;;;;5070232;28;20479;-68
2023/08/31 07:14:56;;;;;;;56.23;2.17;;;;;;;;;;5070369;28;20463;-68
2023/08/31 07:17:23;;;;;;;56.40;2.00;;;;;;;;;;5070520;28;20453;-69
2023/08/31 07:19:50;;;;;;;56.40;2.47;;;;;;;;;;5070678;28;20447;-68
2023/08/31 07:22:17;;;;;;;56.50;2.30;;;;;;;;;;5070389;28;20444;-68
2023/08/31 07:24:45;;;;;;;57.00;2.40;;;;;;;;;;5070453;28;20460;-68
2023/08/31 07:27:13;;;;;;;56.07;1.97;;;;;;;;;;5074257;28;20454;-68
2023/08/31 07:29:40;;;;;;;56.33;2.30;;;;;;;;;;5074151;28;20792;-70
2023/08/31 07:32:07;;;;;;;56.87;2.30;;;;;;;;;;5073614;28;20490;-69
2023/08/31 07:34:35;;;;;;;56.23;2.00;;;;;;;;;;5073998;28;20990;-66
2023/08/31 07:37:03;;;;;;;57.17;3.60;;;;;;;;;;5074115;28;20469;-68
2023/08/31 07:39:30;;;;;;;56.80;2.20;;;;;;;;;;5073794;28;20451;-67
2023/08/31 07:41:59;;;;;;;56.23;2.10;;;;;;;;;;5073625;28;20446;-68
2023/08/31 07:44:27;;;;;;;56.20;2.20;;;;;;;;;;5073743;28;20467;-67
2023/08/31 07:46:55;;;;;;;56.07;2.07;;;;;;;;;;5073612;28;20443;-68
2023/08/31 07:49:22;;;;;;;56.30;2.20;;;;;;;;;;5074005;28;20445;-68
2023/08/31 07:51:49;;;;;;;56.70;2.83;;;;;;;;;;5073519;28;20482;-68
2023/08/31 07:54:20;;;;;;;56.37;2.70;;;;;;;;;;5073691;28;20473;-68
2023/08/31 07:56:48;;;;;;;56.57;2.60;;;;;;;;;;5073722;28;20446;-70
2023/08/31 07:59:15;;;;;;;56.80;2.43;;;;;;;;;;5073832;28;20450;-68
2023/08/31 08:01:43;;;;;;;56.27;1.97;;;;;;;;;;5073314;28;20445;-69
2023/08/31 08:04:10;;;;;;;56.27;2.13;;;;;;;;;;5073602;28;20471;-69
2023/08/31 08:06:37;;;;;;;56.40;2.50;;;;;;;;;;5073483;28;20453;-68
2023/08/31 08:09:05;;;;;;;56.23;2.00;;;;;;;;;;5073395;28;20819;-68
2023/08/31 08:11:32;;;;;;;56.17;1.70;;;;;;;;;;5073286;28;20447;-70
2023/08/31 08:13:59;;;;;;;56.47;2.53;;;;;;;;;;5073023;28;20443;-68
2023/08/31 08:16:26;;;;;;;56.07;2.20;;;;;;;;;;5073494;28;20452;-70
2023/08/31 08:18:55;;;;;;;56.10;2.20;;;;;;;;;;5073363;28;20826;-68
2023/08/31 08:21:22;;;;;;;56.30;2.13;;;;;;;;;;5073245;28;20450;-68
2023/08/31 08:23:50;;;;;;;56.20;1.90;;;;;;;;;;5073408;28;20804;-68
2023/08/31 08:26:17;;;;;;;56.37;2.20;;;;;;;;;;5073271;28;20538;-68
2023/08/31 08:28:45;;;;;;;56.27;2.20;;;;;;;;;;5073325;28;20446;-70
2023/08/31 08:31:12;;;;;;;56.30;2.23;;;;;;;;;;5073294;28;20443;-70
2023/08/31 08:33:40;;;;;;;55.97;1.90;;;;;;;;;;5072741;28;20487;-69
2023/08/31 08:36:08;;;;;;;56.23;2.00;;;;;;;;;;5072337;28;20559;-69
2023/08/31 08:38:35;;;;;;;55.97;1.97;;;;;;;;;;5073238;28;20462;-69
2023/08/31 08:41:06;;;;;;;56.17;2.00;;;;;;;;;;5073007;28;20834;-68
2023/08/31 08:43:34;;;;;;;56.23;2.10;;;;;;;;;;5072588;28;20444;-69
2023/08/31 08:46:04;;;;;;;56.23;1.90;;;;;;;;;;5072700;28;20987;-69
2023/08/31 08:48:31;;;;;;;56.00;2.07;;;;;;;;;;5072965;28;20473;-70
2023/08/31 08:50:58;;;;;;;56.30;2.20;;;;;;;;;;5072525;28;20956;-69
2023/08/31 08:53:27;;;;;;;56.30;2.20;;;;;;;;;;5072453;28;20487;-70
2023/08/31 08:55:54;;;;;;;56.37;2.30;;;;;;;;;;5072733;28;20474;-69
2023/08/31 08:58:21;;;;;;;56.50;2.63;;;;;;;;;;5072785;28;20834;-71
2023/08/31 09:00:48;;;;;;;57.27;2.70;;;;;;;;;;5072619;28;20454;-69
2023/08/31 09:03:15;;;;;;;56.13;1.80;;;;;;;;;;5072222;28;20444;-71
2023/08/31 09:05:43;;;;;;;56.77;2.30;;;;;;;;;;5072174;28;20565;-70
2023/08/31 09:08:12;;;;;;;56.60;2.30;;;;;;;;;;5072259;28;20444;-70
2023/08/31 09:10:41;;;;;;;56.20;2.00;;;;;;;;;;5072608;28;20494;-69
2023/08/31 09:13:09;;;;;;;56.47;2.33;;;;;;;;;;5071859;28;20479;-69
2023/08/31 09:15:42;;;;;;;56.43;2.37;;;;;;;;;;5072406;28;20467;-71
2023/08/31 09:18:09;;;;;;;56.30;2.43;;;;;;;;;;5072132;28;20824;-70
2023/08/31 09:20:46;;;;;;;56.10;2.10;;;;;;;;;;5071974;28;20939;-70
2023/08/31 09:23:13;;;;;;;56.27;1.90;;;;;;;;;;5071915;28;20442;-70
2023/08/31 09:25:44;;;;;;;56.30;2.00;;;;;;;;;;5071926;28;20467;-71
2023/08/31 09:28:11;;;;;;;56.70;2.37;;;;;;;;;;5072025;28;20443;-70
2023/08/31 09:30:40;;;;;;;55.97;1.93;;;;;;;;;;5071809;28;20451;-70
2023/08/31 09:33:08;;;;;;;56.70;2.20;;;;;;;;;;5071730;28;20494;-71
2023/08/31 09:35:36;;;;;;;56.30;2.37;;;;;;;;;;5071790;28;20518;-70
2023/08/31 09:38:03;;;;;;;57.47;2.47;;;;;;;;;;5071614;28;20809;-70
2023/08/31 09:40:30;;;;;;;55.97;1.97;;;;;;;;;;5071852;28;20444;-70
2023/08/31 09:42:58;;;;;;;56.30;1.90;;;;;;;;;;5071387;28;20436;-70
2023/08/31 09:45:27;;;;;;;56.07;1.90;;;;;;;;;;5071642;28;20466;-70
2023/08/31 09:47:54;;;;;;;56.10;1.80;;;;;;;;;;5070990;28;20546;-70
2023/08/31 09:50:22;;;;;;;56.30;2.13;;;;;;;;;;5071570;28;20450;-70
2023/08/31 09:52:49;;;;;;;56.53;2.30;;;;;;;;;;5071279;28;20485;-71
2023/08/31 09:55:19;;;;;;;56.43;1.97;;;;;;;;;;5071386;28;20463;-75
2023/08/31 09:57:46;;;;;;;56.07;1.93;;;;;;;;;;5071402;28;20443;-70
2023/08/31 10:00:16;;;;;;;56.47;2.43;;;;;;;;;;5071524;28;20486;-70
2023/08/31 10:02:44;;;;;;;56.17;1.90;;;;;;;;;;5071209;28;20450;-69
2023/08/31 10:05:12;;;;;;;56.07;1.73;;;;;;;;;;5070974;28;20993;-68
2023/08/31 10:07:39;;;;;;;56.20;1.80;;;;;;;;;;5071250;28;20444;-68
2023/08/31 10:10:07;;;;;;;55.73;2.10;;;;;;;;;;5071180;28;20478;-69
2023/08/31 10:12:36;;;;;;;56.00;1.70;;;;;;;;;;5070881;28;20491;-68
2023/08/31 10:15:03;;;;;;;56.10;1.70;;;;;;;;;;5071036;28;20982;-69
2023/08/31 10:17:32;;;;;;;56.73;2.27;;;;;;;;;;5071048;28;20442;-69
2023/08/31 10:20:00;;;;;;;57.23;3.30;;;;;;;;;;5071082;28;20461;-71
2023/08/31 10:22:27;;;;;;;56.10;1.70;;;;;;;;;;5070831;28;20451;-69
2023/08/31 10:25:00;;;;;;;56.23;1.80;;;;;;;;;;5070873;28;20459;-70
2023/08/31 10:27:28;;;;;;;56.20;2.57;;;;;;;;;;5071189;28;20440;-69
2023/08/31 10:29:55;;;;;;;56.37;2.67;;;;;;;;;;5071400;28;20458;-69
2023/08/31 10:32:22;;;;;;;55.97;2.00;;;;;;;;;;5070711;28;20440;-69
2023/08/31 10:35:10;;;;;;;57.20;2.13;;;;;;;;;;5070844;28;20503;-68
2023/08/31 10:37:37;;;;;;;55.77;1.80;;;;;;;;;;5070725;28;20948;-69
2023/08/31 10:40:11;;;;;;;56.87;2.70;;;;;;;;;;5071095;28;20446;-72
2023/08/31 10:42:45;;;;;;;56.47;2.10;;;;;;;;;;5070741;28;20530;-70
2023/08/31 10:45:12;;;;;;;56.33;1.90;;;;;;;;;;5070985;28;20467;-69
2023/08/31 10:47:39;;;;;;;56.23;2.20;;;;;;;;;;5070861;28;20445;-70
2023/08/31 10:50:24;;;;;;;56.30;1.90;;;;;;;;;;5070899;28;20447;-69
2023/08/31 10:52:51;;;;;;;56.00;1.90;;;;;;;;;;5070521;28;20511;-69
2023/08/31 10:55:18;;;;;;;56.27;2.10;;;;;;;;;;5071030;28;20516;-69
2023/08/31 10:57:45;;;;;;;56.07;1.80;;;;;;;;;;5070737;28;20808;-69
2023/08/31 11:00:13;;;;;;;56.27;1.70;;;;;;;;;;5072934;28;20451;-69
2023/08/31 11:02:43;;;;;;;58.40;2.73;;;;;;;;;;5074745;28;20447;-68
2023/08/31 11:05:11;;;;;;;57.20;2.20;;;;;;;;;;5074942;28;20468;-68
2023/08/31 11:07:41;;;;;;;56.43;2.33;;;;;;;;;;5074947;28;20471;-71
2023/08/31 11:10:08;;;;;;;55.67;1.80;;;;;;;;;;5074891;28;20443;-70
2023/08/31 11:12:35;;;;;;;56.70;2.77;;;;;;;;;;5074548;28;20897;-69
2023/08/31 11:15:03;;;;;;;58.17;2.70;;;;;;;;;;5074654;28;20466;-69
2023/08/31 11:17:30;;;;;;;56.17;2.00;;;;;;;;;;5074593;28;20451;-69
2023/08/31 11:19:57;;;;;;;55.97;2.00;;;;;;;;;;5074852;28;20449;-70
2023/08/31 11:22:25;;;;;;;56.20;1.90;;;;;;;;;;5074413;28;20446;-69
2023/08/31 11:24:53;;;;;;;56.23;2.10;;;;;;;;;;5074227;28;20991;-69
2023/08/31 11:27:21;;;;;;;56.97;2.33;;;;;;;;;;5074307;28;20443;-69
2023/08/31 11:29:48;;;;;;;56.17;1.87;;;;;;;;;;5074335;28;20450;-69
2023/08/31 11:32:15;;;;;;;56.07;2.10;;;;;;;;;;5074056;28;20469;-70
2023/08/31 11:34:43;;;;;;;55.77;1.70;;;;;;;;;;5074141;28;20486;-69
2023/08/31 11:37:10;;;;;;;56.40;2.30;;;;;;;;;;5073886;28;20455;-68
2023/08/31 11:39:39;;;;;;;56.10;2.27;;;;;;;;;;5073894;28;20447;-69
2023/08/31 11:42:08;;;;;;;58.40;1.90;;;;;;;;;;5073753;28;20467;-70
2023/08/31 11:44:35;;;;;;;56.60;1.70;;;;;;;;;;5073698;28;20455;-68
2023/08/31 11:47:03;;;;;;;55.90;1.70;;;;;;;;;;5073798;28;20789;-68
2023/08/31 11:49:30;;;;;;;56.00;1.60;;;;;;;;;;5073559;28;20927;-69
2023/08/31 11:51:58;;;;;;;56.67;2.20;;;;;;;;;;5073356;28;20443;-69
2023/08/31 11:54:26;;;;;;;55.77;1.70;;;;;;;;;;5073462;28;20840;-69
2023/08/31 11:56:53;;;;;;;57.57;2.53;;;;;;;;;;5074003;28;20803;-68
2023/08/31 11:59:22;;;;;;;56.20;2.37;;;;;;;;;;5073879;28;20448;-68
2023/08/31 12:01:50;;;;;;;56.50;1.90;;;;;;;;;;5073441;28;20534;-68
2023/08/31 12:04:18;;;;;;;56.70;2.20;;;;;;;;;;5073648;28;20889;-69
2023/08/31 12:06:48;;;;;;;56.00;1.80;;;;;;;;;;5073543;28;20871;-70
2023/08/31 12:09:15;;;;;;;55.97;1.90;;;;;;;;;;5074057;28;20435;-69
2023/08/31 12:11:42;;;;;;;55.43;1.60;;;;;;;;;;5072669;28;20451;-67
2023/08/31 12:14:20;;;;;;;56.03;2.13;;;;;;;;;;5073392;28;20487;-68
2023/08/31 12:16:49;;;;;;;56.50;2.13;;;;;;;;;;5073471;28;20823;-69
2023/08/31 12:19:16;;;;;;;56.00;1.70;;;;;;;;;;5073266;28;21039;-68
2023/08/31 12:21:45;;;;;;;56.10;1.70;;;;;;;;;;5072929;28;20454;-69
2023/08/31 12:24:12;;;;;;;56.13;1.93;;;;;;;;;;5073204;28;20975;-68
2023/08/31 12:26:39;;;;;;;56.07;2.30;;;;;;;;;;5073361;28;20526;-68
2023/08/31 12:29:06;;;;;;;56.20;1.97;;;;;;;;;;5073446;28;20928;-68
2023/08/31 12:31:34;;;;;;;56.10;2.23;;;;;;;;;;5073081;28;20484;-68
2023/08/31 12:34:06;;;;;;;56.60;2.07;;;;;;;;;;5072724;28;20903;-68
2023/08/31 12:36:33;;;;;;;56.00;2.40;;;;;;;;;;5073070;28;21023;-68
2023/08/31 12:39:01;;;;;;;56.07;2.20;;;;;;;;;;5073074;28;20447;-68
2023/08/31 12:41:28;;;;;;;56.00;1.70;;;;;;;;;;5073024;28;20502;-69
2023/08/31 12:43:56;;;;;;;56.10;1.83;;;;;;;;;;5072591;28;20505;-69
2023/08/31 12:46:23;;;;;;;56.20;2.00;;;;;;;;;;5072677;28;20529;-69
2023/08/31 12:48:50;;;;;;;55.67;1.60;;;;;;;;;;5072910;28;20446;-69
2023/08/31 12:51:19;;;;;;;56.40;2.30;;;;;;;;;;5072916;28;20452;-69
2023/08/31 12:53:46;;;;;;;55.67;1.73;;;;;;;;;;5072260;28;20493;-69
2023/08/31 12:56:15;;;;;;;56.77;2.30;;;;;;;;;;5072509;28;20471;-70
2023/08/31 12:58:42;;;;;;;56.20;2.00;;;;;;;;;;5072546;28;20538;-70
2023/08/31 13:01:09;;;;;;;56.67;2.13;;;;;;;;;;5072417;28;20444;-70
2023/08/31 13:03:36;;;;;;;55.47;1.60;;;;;;;;;;5072141;28;20444;-70
2023/08/31 13:06:03;;;;;;;56.40;1.70;;;;;;;;;;5072395;28;20474;-69
2023/08/31 13:08:31;;;;;;;55.90;1.83;;;;;;;;;;5072971;28;20826;-70
2023/08/31 13:10:59;;;;;;;56.30;2.00;;;;;;;;;;5072406;28;20451;-69
2023/08/31 13:13:26;;;;;;;56.37;2.40;;;;;;;;;;5072013;28;20776;-69
2023/08/31 13:15:53;;;;;;;56.60;2.20;;;;;;;;;;5071997;28;20897;-68
2023/08/31 13:18:20;;;;;;;56.20;2.20;;;;;;;;;;5072257;28;20943;-68
2023/08/31 13:20:51;;;;;;;56.40;1.90;;;;;;;;;;5072171;28;20447;-68
2023/08/31 13:23:18;;;;;;;56.27;2.10;;;;;;;;;;5071971;28;20439;-68
2023/08/31 13:25:46;;;;;;;56.27;2.07;;;;;;;;;;5071890;28;20463;-69
2023/08/31 13:28:13;;;;;;;56.50;1.90;;;;;;;;;;5071884;28;20444;-69
2023/08/31 13:30:42;;;;;;;62.73;2.40;;;;;;;;;;5072100;28;20818;-70
2023/08/31 13:33:09;;;;;;;56.97;2.30;;;;;;;;;;5071913;28;20481;-69
2023/08/31 13:35:37;;;;;;;56.93;2.37;;;;;;;;;;5071943;28;20455;-70
2023/08/31 13:38:04;;;;;;;56.37;2.07;;;;;;;;;;5071790;28;20452;-67
2023/08/31 13:40:31;;;;;;;56.20;2.00;;;;;;;;;;5071641;28;20443;-69
2023/08/31 13:43:02;;;;;;;56.70;2.13;;;;;;;;;;5071816;28;20539;-68
2023/08/31 13:45:30;;;;;;;55.77;1.90;;;;;;;;;;5071400;28;20924;-70
2023/08/31 13:47:59;;;;;;;56.00;2.10;;;;;;;;;;5071693;28;20450;-70
2023/08/31 13:50:26;;;;;;;55.87;1.70;;;;;;;;;;5071536;28;20534;-69
2023/08/31 13:52:53;;;;;;;56.00;2.20;;;;;;;;;;5071261;28;20813;-70
2023/08/31 13:55:20;;;;;;;55.53;1.70;;;;;;;;;;5071275;28;20497;-70
2023/08/31 13:57:48;;;;;;;56.60;1.70;;;;;;;;;;5071363;28;20451;-69
2023/08/31 14:00:17;;;;;;;55.77;1.50;;;;;;;;;;5071476;28;20447;-69
2023/08/31 14:02:44;;;;;;;55.93;1.97;;;;;;;;;;5071367;28;20440;-69
2023/08/31 14:05:12;;;;;;;56.07;2.40;;;;;;;;;;5071252;28;20471;-69
2023/08/31 14:07:39;;;;;;;56.30;1.90;;;;;;;;;;5071151;28;20995;-69
2023/08/31 14:10:06;;;;;;;56.90;1.97;;;;;;;;;;5071857;28;20450;-69
2023/08/31 14:12:34;;;;;;;56.27;2.10;;;;;;;;;;5071183;28;20449;-70
2023/08/31 14:15:04;;;;;;;56.13;1.77;;;;;;;;;;5071296;28;20491;-69
2023/08/31 14:17:32;;;;;;;56.37;2.03;;;;;;;;;;5071949;28;20451;-70
2023/08/31 14:20:05;;;;;;;56.30;2.17;;;;;;;;;;5071585;28;20454;-69
2023/08/31 14:22:32;;;;;;;56.17;2.00;;;;;;;;;;5070921;28;20530;-69
2023/08/31 14:24:59;;;;;;;56.17;1.80;;;;;;;;;;5071063;28;21065;-69
2023/08/31 14:27:27;;;;;;;56.40;2.10;;;;;;;;;;5071096;28;20443;-69
2023/08/31 14:29:54;;;;;;;56.20;1.90;;;;;;;;;;5070899;28;20499;-71
2023/08/31 14:32:21;;;;;;;56.23;2.07;;;;;;;;;;5070711;28;20455;-70
2023/08/31 14:34:50;;;;;;;56.60;2.37;;;;;;;;;;5070311;28;20487;-69